Darmstadt, Indiana
Current Conditions -  °F | °C
As of 12:54 PM on Friday 24 Oct 2014 (Local Time) from KEVV Reporting Station
Clear Clear  
Wind Chill: 65°   Ceiling: Unl
Heat Index: 65°   Visibility: 10mi
Dew Point: 47°   Wind: 5mph
Humidity: 52%   Direction: 190°S
Pressure: 30.1"   Gusts: NA
Location:  38.1195°N, 87.5368°W
Report Text: KEVV 241754Z 19004KT 10SM CLR 18/08 A3010 RMK AO2 SLP191 T01830083 10183 20094 58014 $
Loading
Personal Weather Stations






























Interactive Weather Map
Tropical Storm Tracking
New forecast layout! Learn more

10-Day Weather Forecast

Advertisements
Track Severe Weather on mobile